createdAt,value
2023-04-05T00:00:34.476Z,70.64
2023-04-05T00:01:29.584Z,70.71
2023-04-05T00:02:24.916Z,70.82
2023-04-05T00:03:20.213Z,70.85
2023-04-05T00:04:15.390Z,70.73
2023-04-05T00:05:10.451Z,70.65
2023-04-05T00:06:06.041Z,70.73
2023-04-05T00:07:00.844Z,70.79
2023-04-05T00:07:56.284Z,70.68
2023-04-05T00:08:51.257Z,70.53
2023-04-05T00:09:46.622Z,70.55
2023-04-05T00:10:41.873Z,70.46
2023-04-05T00:11:37.033Z,70.54
2023-04-05T00:12:32.261Z,70.57
2023-04-05T00:13:27.535Z,70.45
2023-04-05T00:14:22.751Z,70.42
2023-04-05T00:15:18.215Z,70.47
2023-04-05T00:16:13.129Z,70.64
2023-04-05T00:17:10.860Z,70.81
2023-04-05T00:18:03.698Z,71.07
2023-04-05T00:18:58.909Z,71.26
2023-04-05T00:19:54.234Z,71.41
2023-04-05T00:20:49.620Z,71.58
2023-04-05T00:21:44.629Z,71.54
2023-04-05T00:22:39.877Z,71.35
2023-04-05T00:23:35.071Z,71.29
2023-04-05T00:24:30.495Z,71.24
2023-04-05T00:25:25.682Z,71.24
2023-04-05T00:26:21.044Z,71.36
2023-04-05T00:27:16.184Z,71.41
2023-04-05T00:28:11.497Z,71.63
2023-04-05T00:29:06.780Z,71.68
2023-04-05T00:30:02.302Z,71.52
2023-04-05T00:30:57.273Z,71.31
2023-04-05T00:31:52.559Z,71.15
2023-04-05T00:32:47.828Z,71.15
2023-04-05T00:33:43.135Z,71.36
2023-04-05T00:34:38.368Z,71.39
2023-04-05T00:35:33.656Z,71.63
2023-04-05T00:36:28.823Z,71.77
2023-04-05T00:37:23.956Z,71.85
2023-04-05T00:38:19.020Z,71.79
2023-04-05T00:39:14.145Z,71.50
2023-04-05T00:40:09.371Z,71.12
2023-04-05T00:41:04.321Z,70.81
2023-04-05T00:41:59.432Z,70.72
2023-04-05T00:42:54.579Z,70.62
2023-04-05T00:43:49.554Z,70.43
2023-04-05T00:44:44.800Z,70.40
2023-04-05T00:45:39.887Z,70.49
2023-04-05T00:46:34.902Z,70.67
2023-04-05T00:47:29.954Z,70.88
2023-04-05T00:48:25.066Z,71.09
2023-04-05T00:49:20.152Z,71.37
2023-04-05T00:50:15.444Z,71.60
2023-04-05T00:51:10.393Z,71.79
2023-04-05T00:52:05.635Z,71.99
2023-04-05T00:53:00.854Z,72.36
2023-04-05T00:53:56.003Z,72.32
2023-04-05T00:54:51.840Z,72.17
2023-04-05T00:55:47.129Z,72.18
2023-04-05T00:56:42.877Z,72.20
2023-04-05T00:57:38.116Z,72.20
2023-04-05T00:58:33.377Z,72.15
2023-04-05T00:59:29.418Z,72.33
2023-04-05T01:00:24.477Z,72.57
2023-04-05T01:01:19.741Z,72.84
2023-04-05T01:02:15.920Z,72.90
2023-04-05T01:03:11.209Z,72.99
2023-04-05T01:04:06.961Z,72.97
2023-04-05T01:05:02.371Z,72.89
2023-04-05T01:05:57.471Z,72.62
2023-04-05T01:06:53.352Z,72.16
2023-04-05T01:07:48.549Z,71.84
2023-04-05T01:08:44.483Z,71.80
2023-04-05T01:09:39.770Z,71.91
2023-04-05T01:10:35.108Z,72.18
2023-04-05T01:11:30.769Z,72.21
2023-04-05T01:12:26.030Z,72.40
2023-04-05T01:13:21.401Z,72.47
2023-04-05T01:14:17.513Z,72.33
2023-04-05T01:15:12.979Z,72.29
2023-04-05T01:16:08.674Z,72.34
2023-04-05T01:17:03.889Z,72.77
2023-04-05T01:17:59.347Z,72.72
2023-04-05T01:18:54.919Z,72.67
2023-04-05T01:19:50.198Z,72.67
2023-04-05T01:20:45.995Z,72.60
2023-04-05T01:21:41.254Z,72.62
2023-04-05T01:22:36.605Z,72.63
2023-04-05T01:23:32.321Z,72.62
2023-04-05T01:24:27.537Z,72.82
2023-04-05T01:25:22.967Z,72.65
2023-04-05T01:26:19.028Z,72.56
2023-04-05T01:27:14.335Z,72.57
2023-04-05T01:28:10.185Z,72.72
2023-04-05T01:29:05.404Z,72.84
2023-04-05T01:30:00.539Z,72.87
2023-04-05T01:30:56.401Z,73.04
2023-04-05T01:31:51.485Z,73.15
2023-04-05T01:32:47.353Z,73.19
2023-04-05T01:33:42.450Z,73.04
2023-04-05T01:34:37.843Z,72.92
2023-04-05T01:35:33.847Z,72.83
2023-04-05T01:36:28.840Z,72.85
2023-04-05T01:37:24.017Z,73.01
2023-04-05T01:38:20.456Z,73.10
2023-04-05T01:39:15.542Z,73.08
2023-04-05T01:40:11.368Z,73.15
2023-04-05T01:41:06.452Z,73.10
2023-04-05T01:42:01.786Z,73.29
2023-04-05T01:42:57.573Z,73.09
2023-04-05T01:43:52.816Z,73.03
2023-04-05T01:44:48.717Z,72.96
2023-04-05T01:45:43.899Z,72.73
2023-04-05T01:46:39.154Z,72.66
2023-04-05T01:47:34.977Z,72.89
2023-04-05T01:48:30.189Z,73.05
2023-04-05T01:49:25.556Z,73.29
2023-04-05T01:50:21.857Z,73.35
2023-04-05T01:51:16.867Z,73.33
2023-04-05T01:52:12.660Z,73.34
2023-04-05T01:53:07.949Z,73.26
2023-04-05T01:54:03.275Z,73.30
2023-04-05T01:54:58.588Z,73.22
2023-04-05T01:55:54.748Z,73.10
2023-04-05T01:56:49.865Z,73.03
2023-04-05T01:57:45.236Z,73.14
2023-04-05T01:58:41.058Z,73.43
2023-04-05T01:59:36.288Z,73.54
2023-04-05T02:00:31.882Z,73.62
2023-04-05T02:01:27.794Z,73.66
2023-04-05T02:02:22.918Z,73.82
2023-04-05T02:03:18.760Z,73.89
2023-04-05T02:04:13.881Z,73.80
2023-04-05T02:05:09.301Z,73.94
2023-04-05T02:06:05.192Z,73.93
2023-04-05T02:07:00.153Z,73.76
2023-04-05T02:07:55.988Z,73.80
2023-04-05T02:08:51.325Z,73.85
2023-04-05T02:09:46.587Z,73.82
2023-04-05T02:10:42.938Z,73.82
2023-04-05T02:11:37.453Z,73.83
2023-04-05T02:12:32.672Z,73.95
2023-04-05T02:13:27.982Z,74.06
2023-04-05T02:14:23.403Z,74.25
2023-04-05T02:15:18.497Z,74.48
2023-04-05T02:16:13.923Z,74.68
2023-04-05T02:17:09.603Z,74.89
2023-04-05T02:18:04.850Z,75.07
2023-04-05T02:19:00.090Z,75.19
2023-04-05T02:19:56.025Z,75.21
2023-04-05T02:20:51.420Z,75.19
2023-04-05T02:21:46.694Z,75.19
2023-04-05T02:22:41.921Z,75.24
2023-04-05T02:23:37.033Z,75.40
2023-04-05T02:24:32.093Z,75.39
2023-04-05T02:25:27.240Z,75.42
2023-04-05T02:26:22.443Z,75.43
2023-04-05T02:27:17.370Z,75.50
2023-04-05T02:28:12.449Z,75.47
2023-04-05T02:29:07.599Z,75.62
2023-04-05T02:30:02.657Z,75.52
2023-04-05T02:30:57.781Z,75.21
2023-04-05T02:31:52.743Z,74.57
2023-04-05T02:32:47.767Z,74.26
2023-04-05T02:33:42.876Z,74.02
2023-04-05T02:34:37.986Z,74.12
2023-04-05T02:35:35.839Z,74.12
2023-04-05T02:36:31.086Z,74.16
2023-04-05T02:37:26.047Z,74.12
2023-04-05T02:38:21.150Z,73.95
2023-04-05T02:39:16.302Z,73.83
2023-04-05T02:40:11.519Z,73.86
2023-04-05T02:41:06.810Z,73.96
2023-04-05T02:42:01.687Z,74.06
2023-04-05T02:42:56.693Z,74.25
2023-04-05T02:43:51.801Z,74.53
2023-04-05T02:44:46.888Z,74.53
2023-04-05T02:45:41.909Z,74.30
2023-04-05T02:46:37.141Z,74.18
2023-04-05T02:47:32.183Z,74.25
2023-04-05T02:48:27.134Z,74.27
2023-04-05T02:49:22.188Z,74.36
2023-04-05T02:50:18.883Z,74.27
2023-04-05T02:51:14.123Z,74.18
2023-04-05T02:52:09.023Z,74.06
2023-04-05T02:53:04.009Z,73.95
2023-04-05T02:53:59.009Z,74.11
2023-04-05T02:54:54.106Z,74.31
2023-04-05T02:55:49.246Z,74.22
2023-04-05T02:56:44.149Z,74.32
2023-04-05T02:57:39.109Z,74.48
2023-04-05T02:58:34.224Z,74.43
2023-04-05T02:59:29.263Z,74.56
2023-04-05T03:00:24.328Z,74.53
2023-04-05T03:01:20.034Z,74.38
2023-04-05T03:02:15.132Z,74.37
2023-04-05T03:03:10.266Z,74.19
2023-04-05T03:04:06.073Z,74.11
2023-04-05T03:05:01.321Z,74.24
2023-04-05T03:05:57.331Z,74.50
2023-04-05T03:06:52.278Z,74.74
2023-04-05T03:07:47.707Z,74.94
2023-04-05T03:08:43.346Z,75.15
2023-04-05T03:09:38.820Z,75.34
2023-04-05T03:10:33.789Z,75.36
2023-04-05T03:11:30.412Z,75.39
2023-04-05T03:12:25.471Z,75.41
2023-04-05T03:13:21.282Z,75.49
2023-04-05T03:14:16.372Z,75.50
2023-04-05T03:15:11.624Z,75.54
2023-04-05T03:16:07.456Z,75.57
2023-04-05T03:17:02.830Z,75.57
2023-04-05T03:17:58.639Z,75.67
2023-04-05T03:18:53.735Z,75.77
2023-04-05T03:19:49.094Z,75.81
2023-04-05T03:20:44.980Z,75.96
2023-04-05T03:21:40.340Z,75.95
2023-04-05T03:22:35.579Z,75.90
2023-04-05T03:23:31.930Z,75.84
2023-04-05T03:24:27.248Z,75.85
2023-04-05T03:25:23.063Z,75.82
2023-04-05T03:26:18.527Z,75.55
2023-04-05T03:27:13.728Z,75.42
2023-04-05T03:28:09.442Z,75.22
2023-04-05T03:29:04.759Z,75.01
2023-04-05T03:30:00.585Z,74.95
2023-04-05T03:30:55.817Z,75.02
2023-04-05T03:31:51.319Z,75.11
2023-04-05T03:32:46.891Z,75.07
2023-04-05T03:33:42.111Z,75.31
2023-04-05T03:34:37.315Z,75.42
2023-04-05T03:35:33.568Z,75.41
2023-04-05T03:36:28.737Z,75.29
2023-04-05T03:38:50.139Z,76.13
2023-04-05T03:39:44.270Z,76.04
2023-04-05T03:40:38.889Z,76.03
2023-04-05T03:41:33.913Z,75.88
2023-04-05T03:42:29.086Z,75.49
2023-04-05T03:43:24.380Z,75.19
2023-04-05T03:44:19.449Z,74.72
2023-04-05T03:45:14.744Z,74.47
2023-04-05T03:46:09.864Z,74.46
2023-04-05T03:47:05.079Z,74.60
2023-04-05T03:48:00.312Z,74.78
2023-04-05T03:48:55.667Z,75.02
2023-04-05T03:49:50.881Z,75.37
2023-04-05T03:50:46.049Z,75.68
2023-04-05T03:51:41.194Z,75.94
2023-04-05T03:52:36.428Z,75.89
2023-04-05T03:53:31.804Z,75.62
2023-04-05T03:54:26.901Z,75.53
2023-04-05T03:55:22.123Z,75.55
2023-04-05T03:56:17.333Z,75.77
2023-04-05T03:57:12.599Z,75.74
2023-04-05T03:58:07.851Z,75.67
2023-04-05T03:59:03.226Z,75.68
2023-04-05T03:59:58.357Z,75.56
2023-04-05T04:00:53.645Z,75.56
2023-04-05T04:01:48.991Z,75.61
2023-04-05T04:02:44.206Z,75.80
2023-04-05T04:03:39.400Z,76.11
2023-04-05T04:04:34.690Z,76.41
2023-04-05T04:05:29.905Z,76.57
2023-04-05T04:06:25.251Z,76.59
2023-04-05T04:07:20.454Z,76.61
2023-04-05T04:08:15.728Z,76.52
2023-04-05T04:09:11.093Z,76.46
2023-04-05T04:10:06.266Z,76.46
2023-04-05T04:11:01.560Z,76.64
2023-04-05T04:11:56.656Z,76.84
2023-04-05T04:12:51.916Z,76.82
2023-04-05T04:13:47.120Z,76.84
2023-04-05T04:14:42.389Z,76.71
2023-04-05T04:15:37.632Z,76.68
2023-04-05T04:16:32.888Z,76.72
2023-04-05T04:17:28.123Z,76.69
2023-04-05T04:18:23.357Z,76.66
2023-04-05T04:19:18.743Z,76.78
2023-04-05T04:20:14.101Z,76.98
2023-04-05T04:21:09.150Z,77.23
2023-04-05T04:22:04.416Z,77.48
2023-04-05T04:22:59.678Z,77.58
2023-04-05T04:23:54.979Z,77.48
2023-04-05T04:24:50.283Z,77.48
2023-04-05T04:25:45.548Z,77.41
2023-04-05T04:26:40.838Z,77.44
2023-04-05T04:27:36.029Z,77.13
2023-04-05T04:28:31.249Z,77.00
2023-04-05T04:29:26.648Z,76.79
2023-04-05T04:30:21.923Z,76.57
2023-04-05T04:31:17.048Z,76.22
2023-04-05T04:32:12.160Z,75.96
2023-04-05T04:33:08.791Z,75.89
2023-04-05T04:34:02.670Z,75.92
2023-04-05T04:34:58.192Z,76.12
2023-04-05T04:35:53.286Z,76.33
2023-04-05T04:36:48.594Z,76.42
2023-04-05T04:37:43.758Z,76.41
2023-04-05T04:38:39.069Z,76.34
2023-04-05T04:39:36.148Z,76.56
2023-04-05T04:40:29.715Z,76.78
2023-04-05T04:41:24.895Z,76.93
2023-04-05T04:42:20.245Z,77.00
2023-04-05T04:43:15.435Z,76.97
2023-04-05T04:44:10.784Z,77.08
2023-04-05T04:45:05.940Z,77.08
2023-04-05T04:46:01.448Z,76.89
2023-04-05T04:46:56.397Z,76.76
2023-04-05T04:47:51.738Z,76.74
2023-04-05T04:48:46.849Z,76.80
2023-04-05T04:49:42.277Z,76.90
2023-04-05T04:50:37.577Z,77.01
2023-04-05T04:51:32.752Z,76.82
2023-04-05T04:52:28.011Z,76.65
2023-04-05T04:53:24.401Z,76.42
2023-04-05T04:54:18.719Z,76.37
2023-04-05T04:55:14.245Z,76.24
2023-04-05T04:56:09.685Z,76.34
2023-04-05T04:57:04.989Z,76.40
2023-04-05T04:58:00.289Z,76.32
2023-04-05T04:58:55.760Z,76.21
2023-04-05T04:59:51.236Z,76.20
2023-04-05T05:00:46.946Z,76.31
2023-04-05T05:01:42.015Z,76.39
2023-04-05T05:02:37.439Z,76.47
2023-04-05T05:03:32.732Z,76.46
2023-04-05T05:04:28.319Z,76.53
2023-04-05T05:05:23.779Z,76.71
2023-04-05T05:06:18.961Z,76.86
2023-04-05T05:07:14.377Z,77.00
2023-04-05T05:08:09.880Z,76.90
2023-04-05T05:09:05.289Z,76.85
2023-04-05T05:10:00.659Z,76.80
2023-04-05T05:10:55.867Z,76.73
2023-04-05T05:11:51.349Z,76.81
2023-04-05T05:12:46.764Z,76.93
2023-04-05T05:13:42.119Z,77.04
2023-04-05T05:14:37.514Z,77.10
2023-04-05T05:15:33.044Z,77.24
2023-04-05T05:16:28.353Z,77.17
2023-04-05T05:17:23.739Z,77.19
2023-04-05T05:18:19.068Z,77.13
2023-04-05T05:19:14.529Z,76.88
2023-04-05T05:20:10.096Z,76.62
2023-04-05T05:21:05.591Z,76.38
2023-04-05T05:22:00.781Z,76.14
2023-04-05T05:22:56.119Z,76.01
2023-04-05T05:23:51.538Z,75.91
2023-04-05T05:24:47.046Z,75.86
2023-04-05T05:25:42.825Z,75.68
2023-04-05T05:26:37.893Z,75.58
2023-04-05T05:27:33.212Z,75.57
2023-04-05T05:28:28.537Z,75.77
2023-04-05T05:29:24.069Z,76.01
2023-04-05T05:30:19.723Z,76.13
2023-04-05T05:31:15.091Z,76.18
2023-04-05T05:32:10.445Z,76.24
2023-04-05T05:33:06.091Z,76.30
2023-04-05T05:34:01.311Z,76.35
2023-04-05T05:34:56.753Z,76.38
2023-04-05T05:35:52.286Z,76.49
2023-04-05T05:36:47.663Z,76.64
2023-04-05T05:37:43.028Z,76.75
2023-04-05T05:38:39.165Z,76.90
2023-04-05T05:39:33.862Z,77.12
2023-04-05T05:40:29.400Z,77.24
2023-04-05T05:41:24.583Z,77.26
2023-04-05T05:42:20.101Z,77.32
2023-04-05T05:43:15.626Z,77.42
2023-04-05T05:44:10.950Z,77.48
2023-04-05T05:45:06.439Z,77.47
2023-04-05T05:46:02.009Z,77.48
2023-04-05T05:46:57.217Z,77.48
2023-04-05T05:47:52.762Z,77.48
2023-04-05T05:48:48.150Z,77.47
2023-04-05T05:49:43.676Z,77.37
2023-04-05T05:50:39.774Z,77.29
2023-04-05T05:51:34.843Z,77.23
2023-04-05T05:52:30.249Z,77.14
2023-04-05T05:53:25.904Z,76.97
2023-04-05T05:54:21.319Z,76.79
2023-04-05T05:55:17.039Z,76.59
2023-04-05T05:56:12.479Z,76.30
2023-04-05T05:57:07.951Z,76.10
2023-04-05T05:58:03.409Z,76.08
2023-04-05T05:58:58.913Z,76.07
2023-04-05T05:59:54.400Z,76.16
2023-04-05T06:00:50.709Z,76.19
2023-04-05T06:01:45.441Z,76.05
2023-04-05T06:02:40.836Z,75.80
2023-04-05T06:03:36.359Z,75.63
2023-04-05T06:04:31.825Z,75.48
2023-04-05T06:05:27.492Z,75.15
2023-04-05T06:06:22.693Z,75.04
2023-04-05T06:07:18.156Z,75.04
2023-04-05T06:08:13.545Z,74.92
2023-04-05T06:09:08.978Z,74.68
2023-04-05T06:10:04.709Z,74.57
2023-04-05T06:11:00.021Z,74.51
2023-04-05T06:11:57.125Z,74.44
2023-04-05T06:12:50.970Z,74.38
2023-04-05T06:13:46.512Z,74.06
2023-04-05T06:14:41.889Z,73.63
2023-04-05T06:15:37.358Z,73.03
2023-04-05T06:16:32.922Z,72.50
2023-04-05T06:17:28.516Z,72.25
2023-04-05T06:18:24.072Z,72.07
2023-04-05T06:19:19.432Z,71.83
2023-04-05T06:20:15.075Z,71.72
2023-04-05T06:21:10.530Z,71.83
2023-04-05T06:22:05.994Z,71.87
2023-04-05T06:23:01.598Z,71.81
2023-04-05T06:23:57.002Z,71.81
2023-04-05T06:24:52.495Z,71.84
2023-04-05T06:25:47.915Z,71.69
2023-04-05T06:26:43.328Z,71.59
2023-04-05T06:27:38.788Z,71.47
2023-04-05T06:28:34.355Z,71.32
2023-04-05T06:29:29.552Z,71.24
2023-04-05T06:30:25.083Z,71.01
2023-04-05T06:31:20.477Z,70.59
2023-04-05T06:32:15.971Z,70.31
2023-04-05T06:33:11.290Z,70.14
2023-04-05T06:34:06.666Z,69.94
2023-04-05T06:35:02.012Z,69.60
2023-04-05T06:35:57.543Z,69.13
2023-04-05T06:36:52.883Z,68.67
2023-04-05T06:37:48.345Z,68.42
2023-04-05T06:38:43.914Z,68.00
2023-04-05T06:39:39.339Z,67.70
2023-04-05T06:40:34.666Z,67.40
2023-04-05T06:41:30.047Z,67.31
2023-04-05T06:42:26.546Z,66.82
2023-04-05T06:43:20.794Z,66.44
2023-04-05T06:44:16.131Z,65.98
2023-04-05T06:45:11.609Z,65.58
2023-04-05T06:46:07.005Z,65.32
2023-04-05T06:47:02.400Z,65.04
2023-04-05T06:47:57.756Z,64.86
2023-04-05T06:48:53.252Z,64.82
2023-04-05T06:49:48.624Z,64.64
2023-04-05T06:50:43.896Z,64.37
2023-04-05T06:51:39.200Z,64.10
2023-04-05T06:52:34.687Z,62.86
2023-04-05T06:53:29.967Z,62.25
2023-04-05T06:54:25.486Z,62.08
2023-04-05T06:55:20.807Z,62.20
2023-04-05T06:56:16.296Z,61.93
2023-04-05T06:57:11.619Z,61.72
2023-04-05T06:58:07.086Z,61.09
2023-04-05T06:59:02.600Z,60.84
2023-04-05T06:59:57.761Z,63.21
2023-04-05T07:00:53.106Z,65.17
2023-04-05T07:01:48.490Z,60.82
2023-04-05T07:02:43.846Z,58.91
2023-04-05T07:03:39.289Z,58.59
2023-04-05T07:04:34.654Z,58.40
2023-04-05T07:05:30.073Z,58.26
2023-04-05T07:06:25.369Z,58.33
2023-04-05T07:07:20.870Z,58.71
2023-04-05T07:08:16.324Z,58.92
2023-04-05T07:09:11.916Z,58.76
2023-04-05T07:10:07.080Z,58.86
2023-04-05T07:11:02.525Z,58.87
2023-04-05T07:11:57.865Z,58.96
2023-04-05T07:12:53.313Z,58.63
2023-04-05T07:13:48.585Z,59.04
2023-04-05T07:14:43.973Z,59.44
2023-04-05T07:15:39.272Z,59.79
2023-04-05T07:16:34.750Z,59.70
2023-04-05T07:17:30.047Z,59.69
2023-04-05T07:18:25.475Z,59.12
2023-04-05T07:19:20.916Z,58.78
2023-04-05T07:20:16.428Z,58.95
2023-04-05T07:21:11.726Z,58.73
2023-04-05T07:22:07.376Z,58.44
2023-04-05T07:23:02.631Z,57.81
2023-04-05T07:23:58.158Z,57.74
2023-04-05T07:24:53.529Z,57.26
2023-04-05T07:25:49.087Z,57.21
2023-04-05T07:26:44.564Z,58.33
2023-04-05T07:27:40.017Z,58.98
2023-04-05T07:28:35.380Z,57.40
2023-04-05T07:29:30.817Z,56.43
2023-04-05T07:30:26.168Z,55.64
2023-04-05T07:31:21.847Z,55.77
2023-04-05T07:32:17.205Z,55.22
2023-04-05T07:33:12.599Z,54.56
2023-04-05T07:34:07.971Z,54.38
2023-04-05T07:35:03.348Z,54.67
2023-04-05T07:35:58.850Z,54.29
2023-04-05T07:36:54.285Z,53.96
2023-04-05T07:37:49.834Z,53.96
2023-04-05T07:38:45.442Z,53.68
2023-04-05T07:39:40.700Z,53.49
2023-04-05T07:40:36.417Z,53.74
2023-04-05T07:41:31.837Z,53.40
2023-04-05T07:42:27.246Z,53.23
2023-04-05T07:43:22.972Z,52.81
2023-04-05T07:44:18.160Z,52.97
2023-04-05T07:45:13.560Z,52.35
2023-04-05T07:46:09.014Z,52.54
2023-04-05T07:47:04.404Z,52.94
2023-04-05T07:48:00.190Z,52.57
2023-04-05T07:48:55.613Z,52.43
2023-04-05T07:49:51.165Z,52.46
2023-04-05T07:50:46.711Z,52.26
2023-04-05T07:51:42.166Z,52.29
2023-04-05T07:52:37.577Z,52.19
2023-04-05T07:53:33.290Z,52.02
2023-04-05T07:54:28.707Z,51.23
2023-04-05T07:55:24.260Z,51.31
2023-04-05T07:56:19.807Z,51.19
2023-04-05T07:57:15.274Z,50.81
2023-04-05T07:58:10.678Z,50.90
2023-04-05T07:59:06.137Z,51.10
2023-04-05T08:00:01.586Z,51.50
2023-04-05T08:00:57.232Z,51.80
2023-04-05T08:01:53.962Z,51.26
2023-04-05T08:02:48.157Z,51.15
2023-04-05T08:03:43.836Z,51.00
2023-04-05T08:04:39.178Z,51.21
2023-04-05T08:05:34.576Z,52.24
2023-04-05T08:06:30.036Z,51.90
2023-04-05T08:07:25.440Z,51.47
2023-04-05T08:08:21.031Z,50.80
2023-04-05T08:09:16.303Z,51.17
2023-04-05T08:10:11.861Z,51.01
2023-04-05T08:11:07.133Z,51.10
2023-04-05T08:12:02.715Z,51.18
2023-04-05T08:12:58.164Z,51.35
2023-04-05T08:13:53.595Z,50.68
2023-04-05T08:14:49.002Z,50.84
2023-04-05T08:15:44.456Z,51.81
2023-04-05T08:16:39.908Z,53.02
2023-04-05T08:17:35.376Z,53.06
2023-04-05T08:18:30.823Z,52.30
2023-04-05T08:19:26.114Z,51.77
2023-04-05T08:20:21.629Z,51.28
2023-04-05T08:21:17.079Z,51.15
2023-04-05T08:22:12.442Z,51.34
2023-04-05T08:23:07.948Z,50.94
2023-04-05T08:24:03.336Z,50.13
2023-04-05T08:24:59.091Z,49.96
2023-04-05T08:25:54.521Z,50.39
2023-04-05T08:26:49.971Z,50.88
2023-04-05T08:27:45.423Z,51.93
2023-04-05T08:28:40.997Z,52.78
2023-04-05T08:29:36.192Z,52.63
2023-04-05T08:30:31.801Z,51.78
2023-04-05T08:31:27.198Z,51.04
2023-04-05T08:32:22.672Z,50.77
2023-04-05T08:33:18.301Z,50.58
2023-04-05T08:34:13.538Z,50.42
2023-04-05T08:35:08.850Z,49.84
2023-04-05T08:36:04.290Z,49.80
2023-04-05T08:37:00.012Z,49.37
2023-04-05T08:37:55.200Z,49.85
2023-04-05T08:38:50.616Z,50.27
2023-04-05T08:39:46.104Z,50.62
2023-04-05T08:40:41.769Z,50.68
2023-04-05T08:41:36.937Z,50.87
2023-04-05T08:42:32.255Z,51.33
2023-04-05T08:43:27.907Z,50.64
2023-04-05T08:44:23.248Z,50.34
2023-04-05T08:45:18.743Z,50.23
2023-04-05T08:46:14.278Z,50.29
2023-04-05T08:47:09.584Z,50.70
2023-04-05T08:48:05.116Z,50.16
2023-04-05T08:49:00.614Z,48.59
2023-04-05T08:49:56.219Z,48.22
2023-04-05T08:50:51.831Z,48.16
2023-04-05T08:51:47.130Z,48.99
2023-04-05T08:52:42.760Z,50.13
2023-04-05T08:53:38.391Z,50.48
2023-04-05T08:54:33.649Z,50.81
2023-04-05T08:55:28.997Z,51.68
2023-04-05T08:56:24.372Z,50.95
2023-04-05T08:57:19.869Z,49.83
2023-04-05T08:58:15.230Z,48.42
2023-04-05T08:59:10.930Z,47.29
2023-04-05T09:00:06.163Z,46.65
2023-04-05T09:01:01.659Z,45.48
2023-04-05T09:01:57.183Z,45.63
2023-04-05T09:02:52.738Z,45.60
2023-04-05T09:03:48.315Z,45.47
2023-04-05T09:04:43.493Z,44.42
2023-04-05T09:05:39.008Z,44.37
2023-04-05T09:06:34.487Z,44.40
2023-04-05T09:07:29.890Z,43.79
2023-04-05T09:08:25.638Z,43.56
2023-04-05T09:09:20.985Z,44.12
2023-04-05T09:10:16.309Z,45.62
2023-04-05T09:11:11.883Z,46.01
2023-04-05T09:12:07.078Z,45.93
2023-04-05T09:13:02.663Z,46.11
2023-04-05T09:13:58.097Z,46.59
2023-04-05T09:14:53.457Z,47.70
2023-04-05T09:15:48.951Z,47.56
2023-04-05T09:16:44.477Z,46.80
2023-04-05T09:17:39.842Z,45.73
2023-04-05T09:18:35.417Z,45.10
2023-04-05T09:19:30.904Z,45.92
2023-04-05T09:20:26.235Z,45.50
2023-04-05T09:21:21.559Z,45.49
2023-04-05T09:22:17.143Z,44.88
2023-04-05T09:23:12.602Z,43.69
2023-04-05T09:24:08.124Z,43.50
2023-04-05T09:25:03.629Z,43.68
2023-04-05T09:25:59.113Z,43.21
2023-04-05T09:26:54.474Z,42.01
2023-04-05T09:27:50.002Z,41.47
2023-04-05T09:28:45.876Z,41.60
2023-04-05T09:29:41.210Z,41.74
2023-04-05T09:30:36.623Z,41.61
2023-04-05T09:31:32.081Z,41.21
2023-04-05T09:32:27.599Z,41.06
2023-04-05T09:33:23.197Z,41.10
2023-04-05T09:34:18.718Z,40.79
2023-04-05T09:35:14.045Z,40.84
2023-04-05T09:36:09.472Z,41.40
2023-04-05T09:37:04.916Z,40.88
2023-04-05T09:38:00.414Z,41.56
2023-04-05T09:38:55.781Z,41.76
2023-04-05T09:39:51.268Z,41.31
2023-04-05T09:42:10.559Z,41.96
2023-04-05T09:43:07.588Z,40.63
2023-04-05T09:44:04.231Z,39.48
2023-04-05T09:44:56.805Z,39.97
2023-04-05T09:45:52.234Z,40.27
2023-04-05T09:46:47.695Z,41.29
2023-04-05T09:47:43.156Z,42.57
2023-04-05T09:48:39.545Z,43.27
2023-04-05T09:49:34.138Z,42.78
2023-04-05T09:50:29.646Z,42.89
2023-04-05T09:51:25.053Z,42.37
2023-04-05T09:52:20.486Z,42.58
2023-04-05T09:53:16.126Z,42.73
2023-04-05T09:54:11.389Z,43.13
2023-04-05T09:55:06.770Z,44.00
2023-04-05T09:56:02.126Z,42.55
2023-04-05T09:56:57.932Z,41.07
2023-04-05T09:57:52.957Z,40.50
2023-04-05T09:58:48.708Z,41.17
2023-04-05T09:59:44.232Z,41.77
2023-04-05T10:00:39.750Z,42.57
2023-04-05T10:01:35.100Z,43.16
2023-04-05T10:02:30.902Z,44.35
2023-04-05T10:03:26.348Z,44.88
2023-04-05T10:04:21.557Z,45.15
2023-04-05T10:05:17.102Z,44.35
2023-04-05T10:06:12.532Z,44.33
2023-04-05T10:07:08.000Z,44.86
2023-04-05T10:08:03.593Z,44.99
2023-04-05T10:08:59.326Z,45.24
2023-04-05T10:09:54.654Z,45.23
2023-04-05T10:10:50.107Z,45.49
2023-04-05T10:11:45.617Z,46.12
2023-04-05T10:12:40.960Z,45.31
2023-04-05T10:13:36.459Z,44.27
2023-04-05T10:14:31.824Z,43.65
2023-04-05T10:15:27.309Z,43.36
2023-04-05T10:16:22.644Z,43.41
2023-04-05T10:17:18.135Z,43.32
2023-04-05T10:18:13.666Z,43.03
2023-04-05T10:19:10.333Z,42.45
2023-04-05T10:20:04.669Z,41.59
2023-04-05T10:21:00.253Z,41.36
2023-04-05T10:21:55.633Z,41.67
2023-04-05T10:22:51.108Z,41.87
2023-04-05T10:23:46.497Z,40.74
2023-04-05T10:24:41.999Z,40.50
2023-04-05T10:25:37.333Z,40.02
2023-04-05T10:26:32.786Z,39.58
2023-04-05T10:27:28.210Z,38.65
2023-04-05T10:28:23.837Z,38.77
2023-04-05T10:29:19.234Z,39.89
2023-04-05T10:30:14.596Z,40.08
2023-04-05T10:31:10.068Z,40.37
2023-04-05T10:32:05.472Z,39.30
2023-04-05T10:33:01.091Z,39.58
2023-04-05T10:33:56.459Z,39.09
2023-04-05T10:34:52.064Z,39.38
2023-04-05T10:35:47.443Z,39.32
2023-04-05T10:36:42.797Z,40.42
2023-04-05T10:37:38.508Z,41.43
2023-04-05T10:38:33.881Z,41.77
2023-04-05T10:39:29.401Z,42.23
2023-04-05T10:40:24.966Z,42.47
2023-04-05T10:41:20.472Z,42.77
2023-04-05T10:42:16.004Z,42.56
2023-04-05T10:43:11.499Z,42.43
2023-04-05T10:44:15.225Z,41.42
2023-04-05T10:45:03.394Z,41.44
2023-04-05T10:45:57.748Z,41.59
2023-04-05T10:46:53.513Z,42.21
2023-04-05T10:47:49.151Z,42.04
2023-04-05T10:48:44.632Z,40.98
2023-04-05T10:49:40.088Z,40.69
2023-04-05T10:50:35.217Z,40.20
2023-04-05T10:51:30.574Z,40.07
2023-04-05T10:52:26.361Z,40.31
2023-04-05T10:53:21.516Z,41.14
2023-04-05T10:54:17.205Z,41.84
2023-04-05T10:55:12.432Z,41.82
2023-04-05T10:56:07.779Z,41.58
2023-04-05T10:57:03.230Z,40.76
2023-04-05T10:57:58.669Z,39.81
2023-04-05T10:58:54.268Z,38.80
2023-04-05T10:59:49.996Z,38.62
2023-04-05T11:00:45.135Z,38.92
2023-04-05T11:01:40.811Z,40.19
2023-04-05T11:02:36.238Z,41.24
2023-04-05T11:03:31.855Z,41.20
2023-04-05T11:04:27.285Z,41.89
2023-04-05T11:05:22.841Z,42.39
2023-04-05T11:06:18.278Z,43.03
2023-04-05T11:07:13.845Z,42.82
2023-04-05T11:08:09.452Z,43.13
2023-04-05T11:09:05.050Z,43.22
2023-04-05T11:10:00.508Z,43.23
2023-04-05T11:10:56.010Z,42.28
2023-04-05T11:11:51.327Z,40.96
2023-04-05T11:12:47.015Z,40.42
2023-04-05T11:13:42.756Z,39.56
2023-04-05T11:14:38.152Z,39.68
2023-04-05T11:15:33.626Z,39.71
2023-04-05T11:16:29.189Z,39.34
2023-04-05T11:17:24.492Z,39.02
2023-04-05T11:18:19.871Z,39.60
2023-04-05T11:19:15.413Z,39.97
2023-04-05T11:20:10.911Z,40.72
2023-04-05T11:21:06.257Z,42.23
2023-04-05T11:22:01.763Z,42.58
2023-04-05T11:22:57.201Z,42.64
2023-04-05T11:23:52.720Z,42.55
2023-04-05T11:24:48.485Z,42.46
2023-04-05T11:25:43.775Z,42.29
2023-04-05T11:26:39.181Z,42.07
2023-04-05T11:27:34.645Z,42.12
2023-04-05T11:28:29.995Z,42.18
2023-04-05T11:29:25.753Z,41.00
2023-04-05T11:30:21.000Z,40.11
2023-04-05T11:31:16.614Z,39.60
2023-04-05T11:32:12.319Z,40.28
2023-04-05T11:33:07.734Z,40.89
2023-04-05T11:34:03.200Z,40.78
2023-04-05T11:34:58.714Z,40.87
2023-04-05T11:35:54.154Z,40.77
2023-04-05T11:36:49.124Z,40.07
2023-04-05T11:37:44.108Z,39.41
2023-04-05T11:38:39.228Z,38.10
2023-04-05T11:39:34.215Z,37.92
2023-04-05T11:40:29.291Z,37.52
2023-04-05T11:41:24.339Z,37.69
2023-04-05T11:42:19.424Z,38.10
2023-04-05T11:43:14.474Z,38.73
2023-04-05T11:44:09.572Z,38.22
2023-04-05T11:45:04.650Z,38.14
2023-04-05T11:45:59.737Z,38.58
2023-04-05T11:46:55.008Z,38.96
2023-04-05T11:47:50.080Z,38.93
2023-04-05T11:48:45.092Z,37.83
2023-04-05T11:49:40.586Z,37.39
2023-04-05T11:50:35.994Z,36.96
2023-04-05T11:51:31.404Z,36.78
2023-04-05T11:52:26.586Z,36.11
2023-04-05T11:53:22.157Z,36.41
2023-04-05T11:54:17.588Z,37.05
2023-04-05T11:55:12.960Z,36.63
2023-04-05T11:56:08.462Z,36.64